Mineral Faith — VRKS4 — position and weather

sailwx.info

Track history (hours):
 
Tides and Currents Weather Stations Pressure Air Temp Water Temp Dewpoint Dewpoint Depression Visibility Wind Speed Wind Dir Waves Ship Positions

Mineral Faith

Last reported at 2016-Apr-07 15:22 UTC. Time now 2016-May-03 08:44 UTC.
Position N 38°18' W 031°47'.
Warning: this ship's position is 25 days out of date.

Length 292 m; draft 10.2 m.

Type: Cargo ship. MMSI: 477947500.

Date/timePositionNaut miles runAvg speedWind from/ knotsBaromVisibWave heightAir tempDewpointWater temp
2016-Apr-07 15:22N 38°18' W 031°47'4812.5
2016-Apr-07 11:30N 38°47' W 030°58'1312.2
2016-Apr-07 10:24N 38°54' W 030°44'1112.5
2016-Apr-07 09:33N 39°01' W 030°33'1312.8
2016-Apr-07 08:33N 39°08' W 030°19'1212.4
2016-Apr-07 07:33N 39°16' W 030°07'1212.4
2016-Apr-07 06:33N 39°23' W 029°54'1212.2
2016-Apr-07 05:33N 39°30' W 029°41'1212.1
2016-Apr-07 04:33N 39°37' W 029°28'1212.2
2016-Apr-07 03:33N 39°45' W 029°16'1211.8
2016-Apr-07 02:33N 39°52' W 029°03'1111.3
2016-Apr-07 01:34N 39°58' W 028°51'1211.6
2016-Apr-07 00:33N 40°05' W 028°39'1111.4
2016-Apr-06 23:33N 40°12' W 028°27'2611.7
2016-Apr-06 21:18N 40°28' W 027°59'  
2016-Apr-02 08:29N 53°44' W 005°15'1010.6
2016-Apr-02 07:33N 53°54' W 005°14'1010.2
2016-Apr-02 06:34N 54°04' W 005°12'1010.4
2016-Apr-02 05:34N 54°14' W 005°10'1010.4
2016-Apr-02 04:34N 54°25' W 005°10'1010.3
2016-Apr-02 03:33N 54°35' W 005°13'1110.7
2016-Apr-02 02:33N 54°45' W 005°20'1110.6
2016-Apr-02 01:34N 54°54' W 005°28'10 9.8
2016-Apr-02 00:33N 55°04' W 005°33'9 9.0
2016-Apr-01 23:33N 55°11' W 005°23'1110.0
2016-Apr-01 22:29N 55°18' W 005°09'20 9.6
2016-Apr-01 20:23N 55°34' W 004°47'1 0.2
2016-Apr-01 15:30N 55°35' W 004°47'4 0.1
2016-Mar-31 06:09N 55°31' W 004°48'0 0.0
2016-Mar-31 03:09N 55°31' W 004°48'1 1.7
2016-Mar-31 02:31N 55°30' W 004°49'9 7.4
2016-Mar-31 01:20N 55°23' W 004°59'810.3
2016-Mar-31 00:31N 55°17' W 005°09'1010.1
2016-Mar-30 23:33N 55°08' W 005°16'10 9.6
2016-Mar-30 22:33N 54°59' W 005°21'10 9.7
2016-Mar-30 21:33N 54°50' W 005°15'1010.4
2016-Mar-30 20:33N 54°41' W 005°08'1010.4
2016-Mar-30 19:33N 54°31' W 005°01'9 9.2
2016-Mar-30 18:33N 54°22' W 005°03'10 9.8
2016-Mar-30 17:33N 54°12' W 005°04'1110.1
2016-Mar-30 16:27N 54°01' W 005°06'17910.0
2016-Mar-29 22:29N 51°04' W 005°55'9 7.8
2016-Mar-29 21:24N 50°57' W 005°47'6 7.5
2016-Mar-29 20:33N 50°53' W 005°40'7 7.4
2016-Mar-29 19:33N 50°47' W 005°32'1010.3
2016-Mar-29 18:33N 50°38' W 005°40'1010.3
2016-Mar-29 17:33N 50°29' W 005°48'1010.0
2016-Mar-29 16:33N 50°20' W 005°54'10 9.4
2016-Mar-29 15:32N 50°10' W 005°55'9 9.6
2016-Mar-29 14:33N 50°01' W 005°55'14 7.2
2016-Mar-29 12:33N 49°54' W 005°35'8 7.9
2016-Mar-29 11:33N 49°54' W 005°23'7 7.2
2016-Mar-29 10:33N 49°54' W 005°12'7 7.4
2016-Mar-29 09:33N 49°57' W 005°02'4 4.1
2016-Mar-29 08:33N 50°01' W 004°60'0 0.0
2016-Mar-29 07:33N 50°01' W 004°60'0 0.0
2016-Mar-29 06:27N 50°01' W 004°60'0 0.0
2016-Mar-29 05:33N 50°01' W 004°60'0 0.1
2016-Mar-29 04:33N 50°01' W 004°60'0 0.0
2016-Mar-29 03:33N 50°01' W 004°60'0 0.1
2016-Mar-29 02:33N 50°01' W 004°60'0 0.1
2016-Mar-29 01:33N 50°01' W 004°60'0 0.1
2016-Mar-29 00:33N 50°01' W 004°60'0 0.0
2016-Mar-28 23:33N 50°01' W 004°60'0 0.1
2016-Mar-28 22:33N 50°01' W 004°60'0 0.1
2016-Mar-28 21:33N 50°01' W 004°60'0 0.0
2016-Mar-28 20:33N 50°01' W 004°60'0 0.2
2016-Mar-28 19:33N 50°01' W 004°60'1 1.2
2016-Mar-28 18:33N 50°02' W 005°02'4 3.7
2016-Mar-28 17:33N 49°58' W 005°01'6 6.1
2016-Mar-28 16:33N 49°58' W 004°51'7 6.8
2016-Mar-28 15:33N 49°59' W 004°41'  
Track history (hours):
 
Tides and Currents Weather Stations Pressure Air Temp Water Temp Dewpoint Dewpoint Depression Visibility Wind Speed Wind Dir Waves Ship Positions

Mineral Faith

Last reported at 2016-Apr-07 15:22 UTC. Time now 2016-May-03 08:44 UTC.
Position N 38°18' W 031°47'.
Warning: this ship's position is 25 days out of date.

Length 292 m; draft 10.2 m.

Type: Cargo ship. MMSI: 477947500.

Date/timePositionNaut miles runAvg speedWind from/ knotsBaromVisibWave heightAir tempDewpointWater temp
2016-Apr-07 15:22N 38°18' W 031°47'4812.5
2016-Apr-07 11:30N 38°47' W 030°58'1312.2
2016-Apr-07 10:24N 38°54' W 030°44'1112.5
2016-Apr-07 09:33N 39°01' W 030°33'1312.8
2016-Apr-07 08:33N 39°08' W 030°19'1212.4
2016-Apr-07 07:33N 39°16' W 030°07'1212.4
2016-Apr-07 06:33N 39°23' W 029°54'1212.2
2016-Apr-07 05:33N 39°30' W 029°41'1212.1
2016-Apr-07 04:33N 39°37' W 029°28'1212.2
2016-Apr-07 03:33N 39°45' W 029°16'1211.8
2016-Apr-07 02:33N 39°52' W 029°03'1111.3
2016-Apr-07 01:34N 39°58' W 028°51'1211.6
2016-Apr-07 00:33N 40°05' W 028°39'1111.4
2016-Apr-06 23:33N 40°12' W 028°27'2611.7
2016-Apr-06 21:18N 40°28' W 027°59'  
2016-Apr-02 08:29N 53°44' W 005°15'1010.6
2016-Apr-02 07:33N 53°54' W 005°14'1010.2
2016-Apr-02 06:34N 54°04' W 005°12'1010.4
2016-Apr-02 05:34N 54°14' W 005°10'1010.4
2016-Apr-02 04:34N 54°25' W 005°10'1010.3
2016-Apr-02 03:33N 54°35' W 005°13'1110.7
2016-Apr-02 02:33N 54°45' W 005°20'1110.6
2016-Apr-02 01:34N 54°54' W 005°28'10 9.8
2016-Apr-02 00:33N 55°04' W 005°33'9 9.0
2016-Apr-01 23:33N 55°11' W 005°23'1110.0
2016-Apr-01 22:29N 55°18' W 005°09'20 9.6
2016-Apr-01 20:23N 55°34' W 004°47'1 0.2
2016-Apr-01 15:30N 55°35' W 004°47'4 0.1
2016-Mar-31 06:09N 55°31' W 004°48'0 0.0
2016-Mar-31 03:09N 55°31' W 004°48'1 1.7
2016-Mar-31 02:31N 55°30' W 004°49'9 7.4
2016-Mar-31 01:20N 55°23' W 004°59'810.3
2016-Mar-31 00:31N 55°17' W 005°09'1010.1
2016-Mar-30 23:33N 55°08' W 005°16'10 9.6
2016-Mar-30 22:33N 54°59' W 005°21'10 9.7
2016-Mar-30 21:33N 54°50' W 005°15'1010.4
2016-Mar-30 20:33N 54°41' W 005°08'1010.4
2016-Mar-30 19:33N 54°31' W 005°01'9 9.2
2016-Mar-30 18:33N 54°22' W 005°03'10 9.8
2016-Mar-30 17:33N 54°12' W 005°04'1110.1
2016-Mar-30 16:27N 54°01' W 005°06'17910.0
2016-Mar-29 22:29N 51°04' W 005°55'9 7.8
2016-Mar-29 21:24N 50°57' W 005°47'6 7.5
2016-Mar-29 20:33N 50°53' W 005°40'7 7.4
2016-Mar-29 19:33N 50°47' W 005°32'1010.3
2016-Mar-29 18:33N 50°38' W 005°40'1010.3
2016-Mar-29 17:33N 50°29' W 005°48'1010.0
2016-Mar-29 16:33N 50°20' W 005°54'10 9.4
2016-Mar-29 15:32N 50°10' W 005°55'9 9.6
2016-Mar-29 14:33N 50°01' W 005°55'14 7.2
2016-Mar-29 12:33N 49°54' W 005°35'8 7.9
2016-Mar-29 11:33N 49°54' W 005°23'7 7.2
2016-Mar-29 10:33N 49°54' W 005°12'7 7.4
2016-Mar-29 09:33N 49°57' W 005°02'4 4.1
2016-Mar-29 08:33N 50°01' W 004°60'0 0.0
2016-Mar-29 07:33N 50°01' W 004°60'0 0.0
2016-Mar-29 06:27N 50°01' W 004°60'0 0.0
2016-Mar-29 05:33N 50°01' W 004°60'0 0.1
2016-Mar-29 04:33N 50°01' W 004°60'0 0.0
2016-Mar-29 03:33N 50°01' W 004°60'0 0.1
2016-Mar-29 02:33N 50°01' W 004°60'0 0.1
2016-Mar-29 01:33N 50°01' W 004°60'0 0.1
2016-Mar-29 00:33N 50°01' W 004°60'0 0.0
2016-Mar-28 23:33N 50°01' W 004°60'0 0.1
2016-Mar-28 22:33N 50°01' W 004°60'0 0.1
2016-Mar-28 21:33N 50°01' W 004°60'0 0.0
2016-Mar-28 20:33N 50°01' W 004°60'0 0.2
2016-Mar-28 19:33N 50°01' W 004°60'1 1.2
2016-Mar-28 18:33N 50°02' W 005°02'4 3.7
2016-Mar-28 17:33N 49°58' W 005°01'6 6.1
2016-Mar-28 16:33N 49°58' W 004°51'7 6.8
2016-Mar-28 15:33N 49°59' W 004°41'  

Dump ship's entire track history